Tasman — ZDKI2 — position and weather

sailwx.info

Track history (hours):
 
Tides and Currents Weather Stations Pressure Air Temp Water Temp Dewpoint Dewpoint Depression Visibility Wind Speed Wind Dir Waves Ship Positions

Tasman

Last reported at 2015-Aug-31 17:09 UTC. Time now 2015-Sep-02 00:22 UTC.
Position N 58°05' E 006°26'.

Length 90 m; draft 4 m.

Type: Ship. MMSI: 23617000.

Date/timePositionNaut miles runAvg speedWind from/ knotsBaromVisibWave heightAir tempDewpointWater temp
2015-Aug-31 17:09N 58°05' E 006°26'710.6
2015-Aug-31 16:29N 58°11' E 006°19'9 0.8
2015-Aug-31 05:28N 58°20' E 006°15'0 0.0
2015-Aug-31 04:31N 58°20' E 006°15'3 0.4
2015-Aug-30 20:34N 58°17' E 006°14'13511.0
2015-Aug-30 08:18N 57°49' E 010°23'911.2
2015-Aug-30 07:33N 57°49' E 010°39'1212.0
2015-Aug-30 06:33N 57°42' E 010°57'1212.4
2015-Aug-30 05:33N 57°34' E 011°15'1212.1
2015-Aug-30 04:34N 57°25' E 011°28'1212.2
2015-Aug-30 03:33N 57°13' E 011°36'1212.4
2015-Aug-30 02:33N 57°02' E 011°45'1212.1
2015-Aug-30 01:33N 56°50' E 011°51'1212.5
2015-Aug-30 00:33N 56°38' E 011°57'1412.6
2015-Aug-29 23:29N 56°25' E 012°03'1112.3
2015-Aug-29 22:33N 56°15' E 012°13'1212.5
2015-Aug-29 21:33N 56°08' E 012°32'1111.4
2015-Aug-29 20:33N 55°58' E 012°42'1111.1
2015-Aug-29 19:33N 55°47' E 012°42'1211.5
2015-Aug-29 18:33N 55°35' E 012°42'1212.1
2015-Aug-29 17:33N 55°23' E 012°41'1110.8
2015-Aug-29 16:33N 55°15' E 012°54'1212.5
2015-Aug-29 15:33N 55°06' E 013°09'1312.5
2015-Aug-29 14:33N 54°57' E 013°23'1312.2
2015-Aug-29 13:31N 54°46' E 013°34'4712.0
2015-Aug-29 09:33N 54°05' E 014°15'1010.2
2015-Aug-29 08:33N 53°55' E 014°16'8 8.0
2015-Aug-29 07:33N 53°47' E 014°22'1211.7
2015-Aug-29 06:33N 53°38' E 014°34'8 8.2
2015-Aug-29 05:33N 53°30' E 014°38'1 0.5
2015-Aug-29 04:25N 53°30' E 014°37'0 0.0
2015-Aug-29 03:33N 53°30' E 014°37'0 0.0
2015-Aug-29 02:33N 53°30' E 014°37'0 0.0
2015-Aug-29 01:33N 53°30' E 014°37'0 0.0
2015-Aug-29 00:32N 53°30' E 014°37'0 0.0
2015-Aug-28 23:32N 53°30' E 014°37'0 0.0
2015-Aug-28 22:31N 53°30' E 014°37'0 0.0
2015-Aug-28 21:31N 53°30' E 014°37'0 0.0
2015-Aug-28 20:33N 53°30' E 014°37'0 0.0
2015-Aug-28 19:33N 53°30' E 014°37'0 0.0
2015-Aug-28 18:30N 53°30' E 014°37'0 0.0
2015-Aug-28 17:32N 53°30' E 014°37'0 0.0
2015-Aug-28 16:29N 53°30' E 014°37'0 0.0
2015-Aug-28 15:31N 53°30' E 014°37'0 0.0
2015-Aug-28 14:31N 53°30' E 014°37'0 0.0
2015-Aug-28 13:33N 53°30' E 014°37'0 0.0
2015-Aug-28 12:33N 53°30' E 014°37'0 0.0
2015-Aug-28 11:32N 53°30' E 014°37'0 0.0
2015-Aug-28 10:32N 53°30' E 014°37'0 0.0
2015-Aug-28 09:32N 53°30' E 014°37'0 0.0
2015-Aug-28 08:31N 53°30' E 014°37'0 0.0
2015-Aug-28 07:31N 53°30' E 014°37'0 0.0
2015-Aug-28 06:33N 53°30' E 014°37'0 0.0
2015-Aug-28 05:33N 53°30' E 014°37'0 0.0
2015-Aug-28 04:32N 53°30' E 014°37'0 0.0
2015-Aug-28 03:32N 53°30' E 014°37'0 0.0
2015-Aug-28 02:32N 53°30' E 014°37'0 0.0
2015-Aug-28 01:31N 53°30' E 014°37'0 0.0
2015-Aug-28 00:31N 53°30' E 014°37'0 0.0
2015-Aug-27 23:33N 53°30' E 014°37'0 0.0
2015-Aug-27 22:33N 53°30' E 014°37'0 0.0
2015-Aug-27 21:32N 53°30' E 014°37'0 0.0
2015-Aug-27 20:32N 53°30' E 014°37'0 0.0
2015-Aug-27 19:32N 53°30' E 014°37'0 0.0
2015-Aug-27 18:31N 53°30' E 014°37'0 0.0
2015-Aug-27 17:31N 53°30' E 014°37'0 0.0
2015-Aug-27 16:33N 53°30' E 014°37'0 0.0
2015-Aug-27 15:33N 53°30' E 014°37'0 0.0
2015-Aug-27 14:32N 53°30' E 014°37'0 0.0
2015-Aug-27 13:32N 53°30' E 014°37'0 0.0
2015-Aug-27 12:32N 53°30' E 014°37'0 0.0
2015-Aug-27 11:31N 53°30' E 014°37'0 0.0
2015-Aug-27 10:31N 53°30' E 014°37'0 0.0
2015-Aug-27 09:33N 53°30' E 014°37'0 0.0
2015-Aug-27 08:33N 53°30' E 014°37'0 0.0
2015-Aug-27 07:33N 53°30' E 014°37'0 0.0
2015-Aug-27 06:32N 53°30' E 014°37'0 0.0
2015-Aug-27 05:32N 53°30' E 014°37'0 0.0
2015-Aug-27 04:31N 53°30' E 014°37'0 0.0
2015-Aug-27 03:31N 53°30' E 014°37'0 0.0
2015-Aug-27 02:33N 53°30' E 014°37'0 0.0
2015-Aug-27 01:33N 53°30' E 014°37'0 0.0
2015-Aug-27 00:33N 53°30' E 014°37'0 0.0
2015-Aug-26 23:32N 53°30' E 014°37'0 0.0
2015-Aug-26 22:32N 53°30' E 014°37'0 0.0
2015-Aug-26 21:31N 53°30' E 014°37'0 0.0
2015-Aug-26 20:31N 53°30' E 014°37'0 0.0
2015-Aug-26 19:33N 53°30' E 014°37'0 0.0
2015-Aug-26 18:33N 53°30' E 014°37'0 0.0
2015-Aug-26 17:33N 53°30' E 014°37'0 0.0
2015-Aug-26 16:32N 53°30' E 014°37'0 0.0
2015-Aug-26 15:32N 53°30' E 014°37'0 0.0
2015-Aug-26 14:31N 53°30' E 014°37'0 0.0
2015-Aug-26 13:28N 53°30' E 014°37'0 0.0
2015-Aug-26 12:30N 53°30' E 014°37'0 0.0
2015-Aug-26 11:33N 53°30' E 014°37'0 0.0
2015-Aug-26 10:33N 53°30' E 014°37'0 0.0
2015-Aug-26 09:32N 53°30' E 014°37'0 0.0
2015-Aug-26 08:33N 53°30' E 014°37'4 4.4
2015-Aug-26 07:33N 53°34' E 014°36'1010.3
2015-Aug-26 06:33N 53°43' E 014°28'1010.3
2015-Aug-26 05:33N 53°51' E 014°17'8 8.4
2015-Aug-26 04:33N 53°60' E 014°15'9 9.4
2015-Aug-26 03:33N 54°09' E 014°12'8011.0
2015-Aug-25 20:15N 55°14' E 012°52'811.5
2015-Aug-25 19:33N 55°18' E 012°39'1110.6
2015-Aug-25 18:33N 55°28' E 012°40'1211.9
2015-Aug-25 17:33N 55°40' E 012°41'1212.0
2015-Aug-25 16:33N 55°52' E 012°40'1111.1
2015-Aug-25 15:34N 56°03' E 012°39'1312.5
2015-Aug-25 14:33N 56°11' E 012°21'1212.1
2015-Aug-25 13:33N 56°18' E 012°03'1611.7
2015-Aug-25 12:10N 56°34' E 011°57'711.9
2015-Aug-25 11:33N 56°41' E 011°54'1211.9
2015-Aug-25 10:33N 56°52' E 011°47'1211.6
2015-Aug-25 09:33N 57°03' E 011°40'1411.4
2015-Aug-25 08:19N 57°16' E 011°30'911.1
2015-Aug-25 07:33N 57°24' E 011°25'1110.6
2015-Aug-25 06:33N 57°33' E 011°14'1110.6
2015-Aug-25 05:33N 57°40' E 010°59'1110.9
2015-Aug-25 04:33N 57°47' E 010°44'  
Track history (hours):
 
Tides and Currents Weather Stations Pressure Air Temp Water Temp Dewpoint Dewpoint Depression Visibility Wind Speed Wind Dir Waves Ship Positions

Tasman

Last reported at 2015-Aug-31 17:09 UTC. Time now 2015-Sep-02 00:22 UTC.
Position N 58°05' E 006°26'.

Length 90 m; draft 4 m.

Type: Ship. MMSI: 23617000.

Date/timePositionNaut miles runAvg speedWind from/ knotsBaromVisibWave heightAir tempDewpointWater temp
2015-Aug-31 17:09N 58°05' E 006°26'710.6
2015-Aug-31 16:29N 58°11' E 006°19'9 0.8
2015-Aug-31 05:28N 58°20' E 006°15'0 0.0
2015-Aug-31 04:31N 58°20' E 006°15'3 0.4
2015-Aug-30 20:34N 58°17' E 006°14'13511.0
2015-Aug-30 08:18N 57°49' E 010°23'911.2
2015-Aug-30 07:33N 57°49' E 010°39'1212.0
2015-Aug-30 06:33N 57°42' E 010°57'1212.4
2015-Aug-30 05:33N 57°34' E 011°15'1212.1
2015-Aug-30 04:34N 57°25' E 011°28'1212.2
2015-Aug-30 03:33N 57°13' E 011°36'1212.4
2015-Aug-30 02:33N 57°02' E 011°45'1212.1
2015-Aug-30 01:33N 56°50' E 011°51'1212.5
2015-Aug-30 00:33N 56°38' E 011°57'1412.6
2015-Aug-29 23:29N 56°25' E 012°03'1112.3
2015-Aug-29 22:33N 56°15' E 012°13'1212.5
2015-Aug-29 21:33N 56°08' E 012°32'1111.4
2015-Aug-29 20:33N 55°58' E 012°42'1111.1
2015-Aug-29 19:33N 55°47' E 012°42'1211.5
2015-Aug-29 18:33N 55°35' E 012°42'1212.1
2015-Aug-29 17:33N 55°23' E 012°41'1110.8
2015-Aug-29 16:33N 55°15' E 012°54'1212.5
2015-Aug-29 15:33N 55°06' E 013°09'1312.5
2015-Aug-29 14:33N 54°57' E 013°23'1312.2
2015-Aug-29 13:31N 54°46' E 013°34'4712.0
2015-Aug-29 09:33N 54°05' E 014°15'1010.2
2015-Aug-29 08:33N 53°55' E 014°16'8 8.0
2015-Aug-29 07:33N 53°47' E 014°22'1211.7
2015-Aug-29 06:33N 53°38' E 014°34'8 8.2
2015-Aug-29 05:33N 53°30' E 014°38'1 0.5
2015-Aug-29 04:25N 53°30' E 014°37'0 0.0
2015-Aug-29 03:33N 53°30' E 014°37'0 0.0
2015-Aug-29 02:33N 53°30' E 014°37'0 0.0
2015-Aug-29 01:33N 53°30' E 014°37'0 0.0
2015-Aug-29 00:32N 53°30' E 014°37'0 0.0
2015-Aug-28 23:32N 53°30' E 014°37'0 0.0
2015-Aug-28 22:31N 53°30' E 014°37'0 0.0
2015-Aug-28 21:31N 53°30' E 014°37'0 0.0
2015-Aug-28 20:33N 53°30' E 014°37'0 0.0
2015-Aug-28 19:33N 53°30' E 014°37'0 0.0
2015-Aug-28 18:30N 53°30' E 014°37'0 0.0
2015-Aug-28 17:32N 53°30' E 014°37'0 0.0
2015-Aug-28 16:29N 53°30' E 014°37'0 0.0
2015-Aug-28 15:31N 53°30' E 014°37'0 0.0
2015-Aug-28 14:31N 53°30' E 014°37'0 0.0
2015-Aug-28 13:33N 53°30' E 014°37'0 0.0
2015-Aug-28 12:33N 53°30' E 014°37'0 0.0
2015-Aug-28 11:32N 53°30' E 014°37'0 0.0
2015-Aug-28 10:32N 53°30' E 014°37'0 0.0
2015-Aug-28 09:32N 53°30' E 014°37'0 0.0
2015-Aug-28 08:31N 53°30' E 014°37'0 0.0
2015-Aug-28 07:31N 53°30' E 014°37'0 0.0
2015-Aug-28 06:33N 53°30' E 014°37'0 0.0
2015-Aug-28 05:33N 53°30' E 014°37'0 0.0
2015-Aug-28 04:32N 53°30' E 014°37'0 0.0
2015-Aug-28 03:32N 53°30' E 014°37'0 0.0
2015-Aug-28 02:32N 53°30' E 014°37'0 0.0
2015-Aug-28 01:31N 53°30' E 014°37'0 0.0
2015-Aug-28 00:31N 53°30' E 014°37'0 0.0
2015-Aug-27 23:33N 53°30' E 014°37'0 0.0
2015-Aug-27 22:33N 53°30' E 014°37'0 0.0
2015-Aug-27 21:32N 53°30' E 014°37'0 0.0
2015-Aug-27 20:32N 53°30' E 014°37'0 0.0
2015-Aug-27 19:32N 53°30' E 014°37'0 0.0
2015-Aug-27 18:31N 53°30' E 014°37'0 0.0
2015-Aug-27 17:31N 53°30' E 014°37'0 0.0
2015-Aug-27 16:33N 53°30' E 014°37'0 0.0
2015-Aug-27 15:33N 53°30' E 014°37'0 0.0
2015-Aug-27 14:32N 53°30' E 014°37'0 0.0
2015-Aug-27 13:32N 53°30' E 014°37'0 0.0
2015-Aug-27 12:32N 53°30' E 014°37'0 0.0
2015-Aug-27 11:31N 53°30' E 014°37'0 0.0
2015-Aug-27 10:31N 53°30' E 014°37'0 0.0
2015-Aug-27 09:33N 53°30' E 014°37'0 0.0
2015-Aug-27 08:33N 53°30' E 014°37'0 0.0
2015-Aug-27 07:33N 53°30' E 014°37'0 0.0
2015-Aug-27 06:32N 53°30' E 014°37'0 0.0
2015-Aug-27 05:32N 53°30' E 014°37'0 0.0
2015-Aug-27 04:31N 53°30' E 014°37'0 0.0
2015-Aug-27 03:31N 53°30' E 014°37'0 0.0
2015-Aug-27 02:33N 53°30' E 014°37'0 0.0
2015-Aug-27 01:33N 53°30' E 014°37'0 0.0
2015-Aug-27 00:33N 53°30' E 014°37'0 0.0
2015-Aug-26 23:32N 53°30' E 014°37'0 0.0
2015-Aug-26 22:32N 53°30' E 014°37'0 0.0
2015-Aug-26 21:31N 53°30' E 014°37'0 0.0
2015-Aug-26 20:31N 53°30' E 014°37'0 0.0
2015-Aug-26 19:33N 53°30' E 014°37'0 0.0
2015-Aug-26 18:33N 53°30' E 014°37'0 0.0
2015-Aug-26 17:33N 53°30' E 014°37'0 0.0
2015-Aug-26 16:32N 53°30' E 014°37'0 0.0
2015-Aug-26 15:32N 53°30' E 014°37'0 0.0
2015-Aug-26 14:31N 53°30' E 014°37'0 0.0
2015-Aug-26 13:28N 53°30' E 014°37'0 0.0
2015-Aug-26 12:30N 53°30' E 014°37'0 0.0
2015-Aug-26 11:33N 53°30' E 014°37'0 0.0
2015-Aug-26 10:33N 53°30' E 014°37'0 0.0
2015-Aug-26 09:32N 53°30' E 014°37'0 0.0
2015-Aug-26 08:33N 53°30' E 014°37'4 4.4
2015-Aug-26 07:33N 53°34' E 014°36'1010.3
2015-Aug-26 06:33N 53°43' E 014°28'1010.3
2015-Aug-26 05:33N 53°51' E 014°17'8 8.4
2015-Aug-26 04:33N 53°60' E 014°15'9 9.4
2015-Aug-26 03:33N 54°09' E 014°12'8011.0
2015-Aug-25 20:15N 55°14' E 012°52'811.5
2015-Aug-25 19:33N 55°18' E 012°39'1110.6
2015-Aug-25 18:33N 55°28' E 012°40'1211.9
2015-Aug-25 17:33N 55°40' E 012°41'1212.0
2015-Aug-25 16:33N 55°52' E 012°40'1111.1
2015-Aug-25 15:34N 56°03' E 012°39'1312.5
2015-Aug-25 14:33N 56°11' E 012°21'1212.1
2015-Aug-25 13:33N 56°18' E 012°03'1611.7
2015-Aug-25 12:10N 56°34' E 011°57'711.9
2015-Aug-25 11:33N 56°41' E 011°54'1211.9
2015-Aug-25 10:33N 56°52' E 011°47'1211.6
2015-Aug-25 09:33N 57°03' E 011°40'1411.4
2015-Aug-25 08:19N 57°16' E 011°30'911.1
2015-Aug-25 07:33N 57°24' E 011°25'1110.6
2015-Aug-25 06:33N 57°33' E 011°14'1110.6
2015-Aug-25 05:33N 57°40' E 010°59'1110.9
2015-Aug-25 04:33N 57°47' E 010°44'  

Dump ship's entire track history